Terminal Aerodrome Forecast
Issued by NWS

Home | Current Version | Previous Version | Text Only | Print | Product List | Glossary On
Versions: 1 2 3 4 5 6 7 8 9 10 11 12 13 14 15 16 17 18 19 20 21 22
747
FTUS46 KPDT 110540
TAFRDM
TAF
KRDM 110540Z 1106/1206 16006KT P6SM VCSH BKN060
     FM111200 18007KT P6SM SCT045
     FM111800 21013G20KT P6SM VCSH BKN045 OVC080
     FM120000 24010KT 6SM -SHSN OVC040=

USA.gov is the U.S. government's official web portal to all federal, state and local government web resources and services.